Startpagina
METAR-TAF:

METAR-TAF

Vliegvelden :

Aéroport de Poitiers-Biard

Poitiers, Frankrijk

breedte: 46-35N, lengte: 000-19E, hoogte: 129 m

Actueel weer

Dit bericht is 15 minuten geleden gemaakt, om 03:30 UTC
Wind 1 kt uit variabele richting
Temperatuur 11°C
Vochtigheid 87%
Druk 1017 hPa
Zicht 10 km of meer
geen wolken onder 1500 m en geen cumulonimbus

METAR: LFBI 020330Z AUTO VRB01KT CAVOK 11/09 Q1017 NOSIG

Tijdstip: 05:45 (03:45 UTC)

Verwachting

Dit bericht is 4 uur en het 45 minuten geleden gemaakt, om 23:00 UTC
Verwachting geldig van 02 om 00 UTC tot 02 om 24 UTC
Wind 5 kt uit het zuidoosten
Zicht 10 km of meer
geen wolken onder 1500 m en geen cumulonimbus
Wijzigt naar
van 02 om 17 UTC tot 02 om 19 UTC
Wind 5 kt uit het westen

TAF: LFBI 012300Z 0200/0224 13005KT CAVOK BECMG 0217/0219 27005KT

Waarnemingen en weersverwachtingen van meer dan 4000 vliegvelden (METAR en TAF).

De beschikbare stations zijn de gele en rode punten op de kaart.

Ga met uw muis naar het station om de naam te zien.

Klik dan om waarnemingen en weersverwachtingen te zien.

kaart wijzigen: klik op de groene knoppen met een zwart kruis om in te zoomen, op de groene knop met een streepje om uit te zoomen of op de groene pijlen voor aangrenzende kaarten.


METAR-TAF: